Skip Navigation LinksHome page > Weather > Current weather Skip Navigation Links

Current Weather

Tri-Township, Savanna, Ill.

For information only: do not use for flight planning or navigation.
Latest weather
Observation time Monday, November 29, 2021 2:35 PM CST
Local time Monday, November 29, 2021 2:59 PM CST
Flight conditions Visual Meteorological Conditions
Winds
Wind direction South (190°)
Wind speed 12 mph
Visibility 10 mi.
Sky condition
Ceiling unlimited
Sky clear
Temperature 50°F
Dewpoint 28°F
Altimeter 29.77 in.Hg
Derived measurements
Relative humidity 43%
Wind chill 46°F
Density altitude 276 ft.
Remarks
Fully automated report.
Automated weather observing station with precipitation discriminator.
METAR KSFY 292035Z AUTO 19010KT 10SM CLR 10/M02 A2977 RMK AO2

Settings

Location code

InnerDrive.Weather 4.0.6770.0 Release CLR 4.0.30319.42000
Copyright ©2018 Inner Drive Technology. All rights reserved. Portions Copyright ©1986-2018 David Braverman.

Find weather

Site navigation


Skip Navigation Links

Place info

Page info

PayPal - The safer, easier way to pay online!

Return home.

Copyright ©2021 Inner Drive Technology. Purveyors of fine, hand-crafted computer software. Page printed 2021-11-29T20:59:58 UTC.